sensor_id;sensor_type;location;lat;lon;timestamp;temperature;humidity
5588;DHT22;2816;49.778;9.986;2023-05-27T00:01:52;14.30;94.80
5588;DHT22;2816;49.778;9.986;2023-05-27T00:04:19;14.20;95.10
5588;DHT22;2816;49.778;9.986;2023-05-27T00:06:47;14.20;95.40
5588;DHT22;2816;49.778;9.986;2023-05-27T00:09:14;14.10;95.60
5588;DHT22;2816;49.778;9.986;2023-05-27T00:11:41;14.10;95.70
5588;DHT22;2816;49.778;9.986;2023-05-27T00:14:08;14.10;95.90
5588;DHT22;2816;49.778;9.986;2023-05-27T00:16:35;14.00;96.30
5588;DHT22;2816;49.778;9.986;2023-05-27T00:19:04;14.00;96.10
5588;DHT22;2816;49.778;9.986;2023-05-27T00:21:31;14.00;96.30
5588;DHT22;2816;49.778;9.986;2023-05-27T00:23:58;14.00;96.30
5588;DHT22;2816;49.778;9.986;2023-05-27T00:26:25;14.00;96.40
5588;DHT22;2816;49.778;9.986;2023-05-27T00:28:52;13.90;96.40
5588;DHT22;2816;49.778;9.986;2023-05-27T00:31:19;13.90;96.60
5588;DHT22;2816;49.778;9.986;2023-05-27T00:33:46;13.90;96.60
5588;DHT22;2816;49.778;9.986;2023-05-27T00:36:14;13.90;96.80
5588;DHT22;2816;49.778;9.986;2023-05-27T00:38:42;13.80;96.50
5588;DHT22;2816;49.778;9.986;2023-05-27T00:41:11;13.80;96.70
5588;DHT22;2816;49.778;9.986;2023-05-27T00:43:38;13.80;96.80
5588;DHT22;2816;49.778;9.986;2023-05-27T00:46:05;13.80;97.00
5588;DHT22;2816;49.778;9.986;2023-05-27T00:48:32;13.70;97.10
5588;DHT22;2816;49.778;9.986;2023-05-27T00:50:59;13.70;97.00
5588;DHT22;2816;49.778;9.986;2023-05-27T00:53:30;13.70;97.20
5588;DHT22;2816;49.778;9.986;2023-05-27T00:56:02;13.60;97.30
5588;DHT22;2816;49.778;9.986;2023-05-27T00:58:29;13.60;97.30
5588;DHT22;2816;49.778;9.986;2023-05-27T01:00:57;13.50;97.50
5588;DHT22;2816;49.778;9.986;2023-05-27T01:03:24;13.50;97.50
5588;DHT22;2816;49.778;9.986;2023-05-27T01:05:54;13.50;97.50
5588;DHT22;2816;49.778;9.986;2023-05-27T01:08:31;13.40;97.80
5588;DHT22;2816;49.778;9.986;2023-05-27T01:11:01;13.40;97.90
5588;DHT22;2816;49.778;9.986;2023-05-27T01:13:34;13.40;98.00
5588;DHT22;2816;49.778;9.986;2023-05-27T01:16:04;13.30;98.00
5588;DHT22;2816;49.778;9.986;2023-05-27T01:18:33;13.30;98.00
5588;DHT22;2816;49.778;9.986;2023-05-27T01:21:05;13.30;97.70
5588;DHT22;2816;49.778;9.986;2023-05-27T01:23:34;13.30;97.80
5588;DHT22;2816;49.778;9.986;2023-05-27T01:26:04;13.20;98.00
5588;DHT22;2816;49.778;9.986;2023-05-27T01:28:31;13.20;98.20
5588;DHT22;2816;49.778;9.986;2023-05-27T01:31:02;13.10;97.90
5588;DHT22;2816;49.778;9.986;2023-05-27T01:33:33;13.10;98.20
5588;DHT22;2816;49.778;9.986;2023-05-27T01:36:05;13.10;98.10
5588;DHT22;2816;49.778;9.986;2023-05-27T01:38:37;13.10;98.00
5588;DHT22;2816;49.778;9.986;2023-05-27T01:41:07;13.00;98.00
5588;DHT22;2816;49.778;9.986;2023-05-27T01:43:36;13.00;98.30
5588;DHT22;2816;49.778;9.986;2023-05-27T01:46:04;13.00;98.20
5588;DHT22;2816;49.778;9.986;2023-05-27T01:48:31;13.00;98.20
5588;DHT22;2816;49.778;9.986;2023-05-27T01:50:58;13.00;98.30
5588;DHT22;2816;49.778;9.986;2023-05-27T01:53:25;12.90;98.10
5588;DHT22;2816;49.778;9.986;2023-05-27T01:55:53;12.90;98.20
5588;DHT22;2816;49.778;9.986;2023-05-27T01:58:21;12.80;98.40
5588;DHT22;2816;49.778;9.986;2023-05-27T02:00:47;12.80;98.40
5588;DHT22;2816;49.778;9.986;2023-05-27T02:03:15;12.80;98.10
5588;DHT22;2816;49.778;9.986;2023-05-27T02:05:42;12.70;98.60
5588;DHT22;2816;49.778;9.986;2023-05-27T02:08:10;12.70;98.40
5588;DHT22;2816;49.778;9.986;2023-05-27T02:10:37;12.70;98.20
5588;DHT22;2816;49.778;9.986;2023-05-27T02:13:05;12.70;98.40
5588;DHT22;2816;49.778;9.986;2023-05-27T02:15:32;12.70;98.40
5588;DHT22;2816;49.778;9.986;2023-05-27T02:17:59;12.60;98.30
5588;DHT22;2816;49.778;9.986;2023-05-27T02:20:26;12.60;99.00
5588;DHT22;2816;49.778;9.986;2023-05-27T02:22:54;12.60;98.70
5588;DHT22;2816;49.778;9.986;2023-05-27T02:25:21;12.60;98.50
5588;DHT22;2816;49.778;9.986;2023-05-27T02:27:48;12.60;98.50
5588;DHT22;2816;49.778;9.986;2023-05-27T02:30:19;12.50;98.60
5588;DHT22;2816;49.778;9.986;2023-05-27T02:32:46;12.60;98.70
5588;DHT22;2816;49.778;9.986;2023-05-27T02:35:13;12.50;98.60
5588;DHT22;2816;49.778;9.986;2023-05-27T02:37:41;12.50;98.80
5588;DHT22;2816;49.778;9.986;2023-05-27T02:40:08;12.50;98.90
5588;DHT22;2816;49.778;9.986;2023-05-27T02:42:36;12.50;99.20
5588;DHT22;2816;49.778;9.986;2023-05-27T02:45:04;12.40;99.00
5588;DHT22;2816;49.778;9.986;2023-05-27T02:47:32;12.40;99.20
5588;DHT22;2816;49.778;9.986;2023-05-27T02:49:59;12.30;99.30
5588;DHT22;2816;49.778;9.986;2023-05-27T02:52:26;12.30;99.40
5588;DHT22;2816;49.778;9.986;2023-05-27T02:54:53;12.20;99.50
5588;DHT22;2816;49.778;9.986;2023-05-27T02:57:20;12.30;99.80
5588;DHT22;2816;49.778;9.986;2023-05-27T02:59:47;12.30;99.50
5588;DHT22;2816;49.778;9.986;2023-05-27T03:02:14;12.20;99.70
5588;DHT22;2816;49.778;9.986;2023-05-27T03:04:42;12.20;99.70
5588;DHT22;2816;49.778;9.986;2023-05-27T03:07:09;12.10;99.90
5588;DHT22;2816;49.778;9.986;2023-05-27T03:09:36;12.10;99.90
5588;DHT22;2816;49.778;9.986;2023-05-27T03:12:03;12.00;99.90
5588;DHT22;2816;49.778;9.986;2023-05-27T03:14:31;12.00;99.90
5588;DHT22;2816;49.778;9.986;2023-05-27T03:16:58;11.90;99.90
5588;DHT22;2816;49.778;9.986;2023-05-27T03:19:25;11.90;99.90
5588;DHT22;2816;49.778;9.986;2023-05-27T03:21:53;11.90;99.90
5588;DHT22;2816;49.778;9.986;2023-05-27T03:24:20;11.90;99.90
5588;DHT22;2816;49.778;9.986;2023-05-27T03:26:47;11.90;99.90
5588;DHT22;2816;49.778;9.986;2023-05-27T03:29:14;11.90;99.90
5588;DHT22;2816;49.778;9.986;2023-05-27T03:31:42;11.90;99.90
5588;DHT22;2816;49.778;9.986;2023-05-27T03:34:09;11.80;99.90
5588;DHT22;2816;49.778;9.986;2023-05-27T03:36:36;11.70;99.90
5588;DHT22;2816;49.778;9.986;2023-05-27T03:39:05;11.60;99.90
5588;DHT22;2816;49.778;9.986;2023-05-27T03:41:32;11.70;99.90
5588;DHT22;2816;49.778;9.986;2023-05-27T03:43:59;11.50;99.90
5588;DHT22;2816;49.778;9.986;2023-05-27T03:46:26;11.60;99.90
5588;DHT22;2816;49.778;9.986;2023-05-27T03:48:53;11.50;99.90
5588;DHT22;2816;49.778;9.986;2023-05-27T03:51:20;11.40;99.90
5588;DHT22;2816;49.778;9.986;2023-05-27T03:53:47;11.40;99.90
5588;DHT22;2816;49.778;9.986;2023-05-27T03:56:16;11.40;99.90
5588;DHT22;2816;49.778;9.986;2023-05-27T03:58:43;11.50;99.90
5588;DHT22;2816;49.778;9.986;2023-05-27T04:01:10;11.50;99.90
5588;DHT22;2816;49.778;9.986;2023-05-27T04:03:37;11.70;99.90
5588;DHT22;2816;49.778;9.986;2023-05-27T04:06:05;11.60;99.90
5588;DHT22;2816;49.778;9.986;2023-05-27T04:08:32;11.40;99.90
5588;DHT22;2816;49.778;9.986;2023-05-27T04:11:01;11.40;99.90
5588;DHT22;2816;49.778;9.986;2023-05-27T04:13:29;11.60;99.90
5588;DHT22;2816;49.778;9.986;2023-05-27T04:15:56;11.60;99.90
5588;DHT22;2816;49.778;9.986;2023-05-27T04:18:24;11.40;99.90
5588;DHT22;2816;49.778;9.986;2023-05-27T04:20:51;11.50;99.90
5588;DHT22;2816;49.778;9.986;2023-05-27T04:23:19;11.70;99.90
5588;DHT22;2816;49.778;9.986;2023-05-27T04:25:45;11.70;99.90
5588;DHT22;2816;49.778;9.986;2023-05-27T04:28:14;11.70;99.90
5588;DHT22;2816;49.778;9.986;2023-05-27T04:30:43;11.70;99.90
5588;DHT22;2816;49.778;9.986;2023-05-27T04:33:11;11.60;99.90
5588;DHT22;2816;49.778;9.986;2023-05-27T04:35:39;11.60;99.90
5588;DHT22;2816;49.778;9.986;2023-05-27T04:38:09;11.50;99.90
5588;DHT22;2816;49.778;9.986;2023-05-27T04:40:42;11.70;99.90
5588;DHT22;2816;49.778;9.986;2023-05-27T04:43:10;11.60;99.90
5588;DHT22;2816;49.778;9.986;2023-05-27T04:45:40;11.70;99.90
5588;DHT22;2816;49.778;9.986;2023-05-27T04:48:09;11.80;99.90
5588;DHT22;2816;49.778;9.986;2023-05-27T04:50:36;11.80;99.90
5588;DHT22;2816;49.778;9.986;2023-05-27T04:53:03;11.80;99.90
5588;DHT22;2816;49.778;9.986;2023-05-27T04:55:30;11.80;99.90
5588;DHT22;2816;49.778;9.986;2023-05-27T04:57:58;11.90;99.90
5588;DHT22;2816;49.778;9.986;2023-05-27T05:00:28;11.80;99.90
5588;DHT22;2816;49.778;9.986;2023-05-27T05:03:04;11.80;99.90
5588;DHT22;2816;49.778;9.986;2023-05-27T05:05:34;11.70;99.90
5588;DHT22;2816;49.778;9.986;2023-05-27T05:08:01;11.80;99.90
5588;DHT22;2816;49.778;9.986;2023-05-27T05:10:30;11.90;99.90
5588;DHT22;2816;49.778;9.986;2023-05-27T05:12:57;12.00;99.90
5588;DHT22;2816;49.778;9.986;2023-05-27T05:15:24;11.90;99.90
5588;DHT22;2816;49.778;9.986;2023-05-27T05:17:51;12.00;99.90
5588;DHT22;2816;49.778;9.986;2023-05-27T05:20:18;12.00;99.90
5588;DHT22;2816;49.778;9.986;2023-05-27T05:22:46;12.10;99.90
5588;DHT22;2816;49.778;9.986;2023-05-27T05:25:14;12.00;99.90
5588;DHT22;2816;49.778;9.986;2023-05-27T05:27:41;12.10;99.90
5588;DHT22;2816;49.778;9.986;2023-05-27T05:30:08;12.20;99.90
5588;DHT22;2816;49.778;9.986;2023-05-27T05:32:35;12.20;99.90
5588;DHT22;2816;49.778;9.986;2023-05-27T05:35:02;12.30;99.90
5588;DHT22;2816;49.778;9.986;2023-05-27T05:37:29;12.30;99.90
5588;DHT22;2816;49.778;9.986;2023-05-27T05:39:58;12.30;99.90
5588;DHT22;2816;49.778;9.986;2023-05-27T05:42:25;12.40;99.90
5588;DHT22;2816;49.778;9.986;2023-05-27T05:44:52;12.40;99.90
5588;DHT22;2816;49.778;9.986;2023-05-27T05:47:19;12.50;99.90
5588;DHT22;2816;49.778;9.986;2023-05-27T05:49:46;12.50;99.90
5588;DHT22;2816;49.778;9.986;2023-05-27T05:52:13;12.70;99.90
5588;DHT22;2816;49.778;9.986;2023-05-27T05:54:40;12.70;99.90
5588;DHT22;2816;49.778;9.986;2023-05-27T05:57:08;12.90;99.90
5588;DHT22;2816;49.778;9.986;2023-05-27T05:59:35;12.90;99.90
5588;DHT22;2816;49.778;9.986;2023-05-27T06:02:02;12.90;99.90
5588;DHT22;2816;49.778;9.986;2023-05-27T06:04:29;13.10;99.90
5588;DHT22;2816;49.778;9.986;2023-05-27T06:06:56;13.20;99.90
5588;DHT22;2816;49.778;9.986;2023-05-27T06:09:23;13.20;99.90
5588;DHT22;2816;49.778;9.986;2023-05-27T06:11:50;13.30;99.90
5588;DHT22;2816;49.778;9.986;2023-05-27T06:14:19;13.40;99.90
5588;DHT22;2816;49.778;9.986;2023-05-27T06:16:47;13.40;99.90
5588;DHT22;2816;49.778;9.986;2023-05-27T06:19:14;13.50;99.90
5588;DHT22;2816;49.778;9.986;2023-05-27T06:21:41;13.60;99.90
5588;DHT22;2816;49.778;9.986;2023-05-27T06:24:08;13.60;99.80
5588;DHT22;2816;49.778;9.986;2023-05-27T06:26:35;13.60;99.70
5588;DHT22;2816;49.778;9.986;2023-05-27T06:29:02;13.70;99.90
5588;DHT22;2816;49.778;9.986;2023-05-27T06:31:31;13.90;99.90
5588;DHT22;2816;49.778;9.986;2023-05-27T06:33:58;13.90;99.90
5588;DHT22;2816;49.778;9.986;2023-05-27T06:36:25;13.90;99.40
5588;DHT22;2816;49.778;9.986;2023-05-27T06:38:53;13.90;99.40
5588;DHT22;2816;49.778;9.986;2023-05-27T06:41:20;14.10;99.70
5588;DHT22;2816;49.778;9.986;2023-05-27T06:43:47;14.10;99.30
5588;DHT22;2816;49.778;9.986;2023-05-27T06:46:14;14.00;99.30
5588;DHT22;2816;49.778;9.986;2023-05-27T06:48:42;14.20;99.30
5588;DHT22;2816;49.778;9.986;2023-05-27T06:51:09;14.20;98.90
5588;DHT22;2816;49.778;9.986;2023-05-27T06:53:36;14.20;98.90
5588;DHT22;2816;49.778;9.986;2023-05-27T06:56:03;14.30;98.50
5588;DHT22;2816;49.778;9.986;2023-05-27T06:58:30;14.40;98.60
5588;DHT22;2816;49.778;9.986;2023-05-27T07:00:57;14.50;98.80
5588;DHT22;2816;49.778;9.986;2023-05-27T07:03:24;14.70;98.10
5588;DHT22;2816;49.778;9.986;2023-05-27T07:05:52;14.70;98.40
5588;DHT22;2816;49.778;9.986;2023-05-27T07:08:20;14.90;97.50
5588;DHT22;2816;49.778;9.986;2023-05-27T07:10:47;14.90;97.30
5588;DHT22;2816;49.778;9.986;2023-05-27T07:13:14;14.90;97.30
5588;DHT22;2816;49.778;9.986;2023-05-27T07:15:41;14.90;97.40
5588;DHT22;2816;49.778;9.986;2023-05-27T07:18:08;15.00;96.90
5588;DHT22;2816;49.778;9.986;2023-05-27T07:20:35;15.10;96.90
5588;DHT22;2816;49.778;9.986;2023-05-27T07:23:03;15.10;97.20
5588;DHT22;2816;49.778;9.986;2023-05-27T07:25:31;15.20;97.40
5588;DHT22;2816;49.778;9.986;2023-05-27T07:27:57;15.30;97.10
5588;DHT22;2816;49.778;9.986;2023-05-27T07:30:24;15.40;97.10
5588;DHT22;2816;49.778;9.986;2023-05-27T07:32:52;15.50;97.20
5588;DHT22;2816;49.778;9.986;2023-05-27T07:35:19;15.60;96.50
5588;DHT22;2816;49.778;9.986;2023-05-27T07:37:46;15.70;96.50
5588;DHT22;2816;49.778;9.986;2023-05-27T07:40:15;15.70;96.60
5588;DHT22;2816;49.778;9.986;2023-05-27T07:42:42;15.80;96.60
5588;DHT22;2816;49.778;9.986;2023-05-27T07:45:09;15.80;96.40
5588;DHT22;2816;49.778;9.986;2023-05-27T07:47:36;15.80;96.40
5588;DHT22;2816;49.778;9.986;2023-05-27T07:50:04;15.90;96.60
5588;DHT22;2816;49.778;9.986;2023-05-27T07:52:31;16.00;96.40
5588;DHT22;2816;49.778;9.986;2023-05-27T07:54:58;16.10;95.70
5588;DHT22;2816;49.778;9.986;2023-05-27T07:57:26;16.10;95.80
5588;DHT22;2816;49.778;9.986;2023-05-27T07:59:53;16.30;95.60
5588;DHT22;2816;49.778;9.986;2023-05-27T08:02:20;16.40;95.20
5588;DHT22;2816;49.778;9.986;2023-05-27T08:04:48;16.50;94.60
5588;DHT22;2816;49.778;9.986;2023-05-27T08:07:15;16.60;95.00
5588;DHT22;2816;49.778;9.986;2023-05-27T08:09:42;16.60;95.40
5588;DHT22;2816;49.778;9.986;2023-05-27T08:12:09;16.70;94.80
5588;DHT22;2816;49.778;9.986;2023-05-27T08:14:38;16.80;94.90
5588;DHT22;2816;49.778;9.986;2023-05-27T08:17:05;16.80;95.20
5588;DHT22;2816;49.778;9.986;2023-05-27T08:19:32;16.90;95.40
5588;DHT22;2816;49.778;9.986;2023-05-27T08:21:59;17.10;94.80
5588;DHT22;2816;49.778;9.986;2023-05-27T08:24:27;17.20;94.60
5588;DHT22;2816;49.778;9.986;2023-05-27T08:26:56;17.20;93.90
5588;DHT22;2816;49.778;9.986;2023-05-27T08:29:23;17.30;94.00
5588;DHT22;2816;49.778;9.986;2023-05-27T08:31:54;17.30;94.20
5588;DHT22;2816;49.778;9.986;2023-05-27T08:34:21;17.50;92.50
5588;DHT22;2816;49.778;9.986;2023-05-27T08:36:48;17.70;91.60
5588;DHT22;2816;49.778;9.986;2023-05-27T08:39:15;17.80;91.60
5588;DHT22;2816;49.778;9.986;2023-05-27T08:41:42;17.90;91.80
5588;DHT22;2816;49.778;9.986;2023-05-27T08:44:09;18.10;91.80
5588;DHT22;2816;49.778;9.986;2023-05-27T08:46:36;18.10;91.70
5588;DHT22;2816;49.778;9.986;2023-05-27T08:49:06;18.20;90.90
5588;DHT22;2816;49.778;9.986;2023-05-27T08:51:35;18.20;90.80
5588;DHT22;2816;49.778;9.986;2023-05-27T08:54:03;18.30;90.70
5588;DHT22;2816;49.778;9.986;2023-05-27T08:56:33;18.30;91.10
5588;DHT22;2816;49.778;9.986;2023-05-27T08:59:02;18.40;90.70
5588;DHT22;2816;49.778;9.986;2023-05-27T09:01:29;18.50;90.40
5588;DHT22;2816;49.778;9.986;2023-05-27T09:03:57;18.50;90.40
5588;DHT22;2816;49.778;9.986;2023-05-27T09:06:25;18.60;90.40
5588;DHT22;2816;49.778;9.986;2023-05-27T09:08:52;18.70;90.40
5588;DHT22;2816;49.778;9.986;2023-05-27T09:11:21;18.70;90.20
5588;DHT22;2816;49.778;9.986;2023-05-27T09:13:48;18.70;90.60
5588;DHT22;2816;49.778;9.986;2023-05-27T09:16:20;18.80;90.10
5588;DHT22;2816;49.778;9.986;2023-05-27T09:18:48;18.80;89.20
5588;DHT22;2816;49.778;9.986;2023-05-27T09:21:15;18.80;88.70
5588;DHT22;2816;49.778;9.986;2023-05-27T09:23:44;19.00;89.50
5588;DHT22;2816;49.778;9.986;2023-05-27T09:26:12;19.10;87.70
5588;DHT22;2816;49.778;9.986;2023-05-27T09:28:39;19.10;87.90
5588;DHT22;2816;49.778;9.986;2023-05-27T09:31:07;19.00;88.90
5588;DHT22;2816;49.778;9.986;2023-05-27T09:33:36;19.40;87.20
5588;DHT22;2816;49.778;9.986;2023-05-27T09:36:04;19.40;86.30
5588;DHT22;2816;49.778;9.986;2023-05-27T09:38:32;19.40;87.60
5588;DHT22;2816;49.778;9.986;2023-05-27T09:41:02;19.40;86.30
5588;DHT22;2816;49.778;9.986;2023-05-27T09:43:29;19.30;86.90
5588;DHT22;2816;49.778;9.986;2023-05-27T09:45:59;19.60;85.90
5588;DHT22;2816;49.778;9.986;2023-05-27T09:48:28;19.50;85.70
5588;DHT22;2816;49.778;9.986;2023-05-27T09:50:56;19.50;85.00
5588;DHT22;2816;49.778;9.986;2023-05-27T09:53:24;19.70;85.30
5588;DHT22;2816;49.778;9.986;2023-05-27T09:55:52;19.70;84.60
5588;DHT22;2816;49.778;9.986;2023-05-27T09:58:21;19.70;86.40
5588;DHT22;2816;49.778;9.986;2023-05-27T10:00:48;19.90;85.20
5588;DHT22;2816;49.778;9.986;2023-05-27T10:03:16;19.90;86.60
5588;DHT22;2816;49.778;9.986;2023-05-27T10:05:44;20.20;83.20
5588;DHT22;2816;49.778;9.986;2023-05-27T10:08:11;20.30;83.40
5588;DHT22;2816;49.778;9.986;2023-05-27T10:10:39;20.50;84.20
5588;DHT22;2816;49.778;9.986;2023-05-27T10:13:06;20.90;81.80
5588;DHT22;2816;49.778;9.986;2023-05-27T10:15:35;20.80;81.70
5588;DHT22;2816;49.778;9.986;2023-05-27T10:18:03;20.80;82.20
5588;DHT22;2816;49.778;9.986;2023-05-27T10:20:34;20.80;82.10
5588;DHT22;2816;49.778;9.986;2023-05-27T10:23:10;21.00;83.60
5588;DHT22;2816;49.778;9.986;2023-05-27T10:25:38;21.30;81.30
5588;DHT22;2816;49.778;9.986;2023-05-27T10:28:05;21.30;79.40
5588;DHT22;2816;49.778;9.986;2023-05-27T10:30:44;20.90;79.90
5588;DHT22;2816;49.778;9.986;2023-05-27T10:33:11;21.20;78.50
5588;DHT22;2816;49.778;9.986;2023-05-27T10:35:39;21.30;79.40
5588;DHT22;2816;49.778;9.986;2023-05-27T10:38:14;21.40;78.90
5588;DHT22;2816;49.778;9.986;2023-05-27T10:40:43;21.50;76.50
5588;DHT22;2816;49.778;9.986;2023-05-27T10:43:17;21.30;77.50
5588;DHT22;2816;49.778;9.986;2023-05-27T10:45:45;21.50;74.80
5588;DHT22;2816;49.778;9.986;2023-05-27T10:48:18;21.50;74.90
5588;DHT22;2816;49.778;9.986;2023-05-27T10:50:51;21.80;75.40
5588;DHT22;2816;49.778;9.986;2023-05-27T10:53:19;22.10;77.30
5588;DHT22;2816;49.778;9.986;2023-05-27T10:55:48;22.40;76.70
5588;DHT22;2816;49.778;9.986;2023-05-27T10:58:16;22.40;73.90
5588;DHT22;2816;49.778;9.986;2023-05-27T11:00:45;22.10;75.50
5588;DHT22;2816;49.778;9.986;2023-05-27T11:03:18;22.30;73.90
5588;DHT22;2816;49.778;9.986;2023-05-27T11:05:47;22.40;73.30
5588;DHT22;2816;49.778;9.986;2023-05-27T11:08:14;22.40;74.80
5588;DHT22;2816;49.778;9.986;2023-05-27T11:10:41;22.20;71.90
5588;DHT22;2816;49.778;9.986;2023-05-27T11:13:08;22.30;74.50
5588;DHT22;2816;49.778;9.986;2023-05-27T11:15:39;22.40;72.70
5588;DHT22;2816;49.778;9.986;2023-05-27T11:18:08;22.30;73.20
5588;DHT22;2816;49.778;9.986;2023-05-27T11:20:36;22.50;71.10
5588;DHT22;2816;49.778;9.986;2023-05-27T11:23:03;22.40;72.00
5588;DHT22;2816;49.778;9.986;2023-05-27T11:25:41;22.40;72.10
5588;DHT22;2816;49.778;9.986;2023-05-27T11:28:13;22.60;72.30
5588;DHT22;2816;49.778;9.986;2023-05-27T11:30:41;22.60;71.20
5588;DHT22;2816;49.778;9.986;2023-05-27T11:33:10;22.60;72.50
5588;DHT22;2816;49.778;9.986;2023-05-27T11:35:37;22.50;72.00
5588;DHT22;2816;49.778;9.986;2023-05-27T11:38:04;22.70;73.00
5588;DHT22;2816;49.778;9.986;2023-05-27T11:40:35;22.40;73.40
5588;DHT22;2816;49.778;9.986;2023-05-27T11:43:03;22.50;73.40
5588;DHT22;2816;49.778;9.986;2023-05-27T11:45:29;23.10;70.40
5588;DHT22;2816;49.778;9.986;2023-05-27T11:48:02;23.20;69.80
5588;DHT22;2816;49.778;9.986;2023-05-27T11:50:30;23.30;72.30
5588;DHT22;2816;49.778;9.986;2023-05-27T11:53:01;22.90;71.50
5588;DHT22;2816;49.778;9.986;2023-05-27T11:55:30;23.00;70.90
5588;DHT22;2816;49.778;9.986;2023-05-27T11:57:57;23.00;72.80
5588;DHT22;2816;49.778;9.986;2023-05-27T12:00:24;23.20;72.10
5588;DHT22;2816;49.778;9.986;2023-05-27T12:02:51;23.30;71.50
5588;DHT22;2816;49.778;9.986;2023-05-27T12:05:18;23.40;69.50
5588;DHT22;2816;49.778;9.986;2023-05-27T12:07:46;23.70;69.20
5588;DHT22;2816;49.778;9.986;2023-05-27T12:10:15;23.70;68.80
5588;DHT22;2816;49.778;9.986;2023-05-27T12:12:41;24.00;67.40
5588;DHT22;2816;49.778;9.986;2023-05-27T12:15:10;24.00;68.00
5588;DHT22;2816;49.778;9.986;2023-05-27T12:17:36;23.90;66.40
5588;DHT22;2816;49.778;9.986;2023-05-27T12:20:04;23.50;68.70
5588;DHT22;2816;49.778;9.986;2023-05-27T12:22:31;23.70;68.60
5588;DHT22;2816;49.778;9.986;2023-05-27T12:25:00;23.70;70.10
5588;DHT22;2816;49.778;9.986;2023-05-27T12:27:27;23.80;69.60
5588;DHT22;2816;49.778;9.986;2023-05-27T12:29:54;24.10;67.70
5588;DHT22;2816;49.778;9.986;2023-05-27T12:32:21;24.20;67.40
5588;DHT22;2816;49.778;9.986;2023-05-27T12:34:48;24.40;67.40
5588;DHT22;2816;49.778;9.986;2023-05-27T12:37:14;24.40;67.10
5588;DHT22;2816;49.778;9.986;2023-05-27T12:39:42;24.00;66.30
5588;DHT22;2816;49.778;9.986;2023-05-27T12:42:10;24.20;68.30
5588;DHT22;2816;49.778;9.986;2023-05-27T12:44:37;24.40;66.10
5588;DHT22;2816;49.778;9.986;2023-05-27T12:47:04;24.20;65.20
5588;DHT22;2816;49.778;9.986;2023-05-27T12:49:31;24.30;64.50
5588;DHT22;2816;49.778;9.986;2023-05-27T12:51:58;24.50;65.10
5588;DHT22;2816;49.778;9.986;2023-05-27T12:54:25;24.70;64.60
5588;DHT22;2816;49.778;9.986;2023-05-27T12:56:52;24.40;63.70
5588;DHT22;2816;49.778;9.986;2023-05-27T12:59:21;24.20;65.00
5588;DHT22;2816;49.778;9.986;2023-05-27T13:01:47;24.30;65.30
5588;DHT22;2816;49.778;9.986;2023-05-27T13:04:15;24.50;65.00
5588;DHT22;2816;49.778;9.986;2023-05-27T13:06:42;24.60;64.30
5588;DHT22;2816;49.778;9.986;2023-05-27T13:09:09;24.60;63.90
5588;DHT22;2816;49.778;9.986;2023-05-27T13:11:36;24.80;63.90
5588;DHT22;2816;49.778;9.986;2023-05-27T13:14:03;24.60;67.30
5588;DHT22;2816;49.778;9.986;2023-05-27T13:16:31;24.30;63.70
5588;DHT22;2816;49.778;9.986;2023-05-27T13:18:58;24.50;63.90
5588;DHT22;2816;49.778;9.986;2023-05-27T13:21:25;25.00;64.00
5588;DHT22;2816;49.778;9.986;2023-05-27T13:23:52;24.90;64.30
5588;DHT22;2816;49.778;9.986;2023-05-27T13:26:19;24.80;63.10
5588;DHT22;2816;49.778;9.986;2023-05-27T13:28:47;25.00;67.10
5588;DHT22;2816;49.778;9.986;2023-05-27T13:31:14;24.80;63.30
5588;DHT22;2816;49.778;9.986;2023-05-27T13:33:43;24.80;62.20
5588;DHT22;2816;49.778;9.986;2023-05-27T13:36:10;24.70;62.70
5588;DHT22;2816;49.778;9.986;2023-05-27T13:38:37;24.50;63.40
5588;DHT22;2816;49.778;9.986;2023-05-27T13:41:04;24.10;64.20
5588;DHT22;2816;49.778;9.986;2023-05-27T13:43:31;24.30;64.10
5588;DHT22;2816;49.778;9.986;2023-05-27T13:45:58;24.50;63.20
5588;DHT22;2816;49.778;9.986;2023-05-27T13:48:25;24.80;62.10
5588;DHT22;2816;49.778;9.986;2023-05-27T13:50:53;24.80;62.60
5588;DHT22;2816;49.778;9.986;2023-05-27T13:53:20;24.70;61.90
5588;DHT22;2816;49.778;9.986;2023-05-27T13:55:47;24.80;61.80
5588;DHT22;2816;49.778;9.986;2023-05-27T13:58:14;24.70;62.30
5588;DHT22;2816;49.778;9.986;2023-05-27T14:00:41;24.80;62.20
5588;DHT22;2816;49.778;9.986;2023-05-27T14:03:07;24.50;62.50
5588;DHT22;2816;49.778;9.986;2023-05-27T14:05:34;24.40;62.20
5588;DHT22;2816;49.778;9.986;2023-05-27T14:08:03;24.50;63.50
5588;DHT22;2816;49.778;9.986;2023-05-27T14:10:32;24.50;62.30
5588;DHT22;2816;49.778;9.986;2023-05-27T14:12:59;24.50;63.30
5588;DHT22;2816;49.778;9.986;2023-05-27T14:15:26;24.70;62.10
5588;DHT22;2816;49.778;9.986;2023-05-27T14:17:54;24.40;61.90
5588;DHT22;2816;49.778;9.986;2023-05-27T14:20:21;24.60;61.00
5588;DHT22;2816;49.778;9.986;2023-05-27T14:22:48;24.90;61.10
5588;DHT22;2816;49.778;9.986;2023-05-27T14:25:17;24.90;61.50
5588;DHT22;2816;49.778;9.986;2023-05-27T14:27:45;24.70;60.80
5588;DHT22;2816;49.778;9.986;2023-05-27T14:30:12;24.90;61.10
5588;DHT22;2816;49.778;9.986;2023-05-27T14:32:39;24.90;60.20
5588;DHT22;2816;49.778;9.986;2023-05-27T14:35:07;25.10;60.00
5588;DHT22;2816;49.778;9.986;2023-05-27T14:37:34;25.30;59.70
5588;DHT22;2816;49.778;9.986;2023-05-27T14:40:01;24.90;59.50
5588;DHT22;2816;49.778;9.986;2023-05-27T14:42:29;25.10;60.70
5588;DHT22;2816;49.778;9.986;2023-05-27T14:44:56;25.00;59.80
5588;DHT22;2816;49.778;9.986;2023-05-27T14:47:23;25.10;60.30
5588;DHT22;2816;49.778;9.986;2023-05-27T14:49:50;25.30;60.20
5588;DHT22;2816;49.778;9.986;2023-05-27T14:52:17;25.00;58.50
5588;DHT22;2816;49.778;9.986;2023-05-27T14:54:44;24.70;59.30
5588;DHT22;2816;49.778;9.986;2023-05-27T14:57:11;24.70;60.50
5588;DHT22;2816;49.778;9.986;2023-05-27T14:59:39;25.10;58.40
5588;DHT22;2816;49.778;9.986;2023-05-27T15:02:06;25.10;60.00
5588;DHT22;2816;49.778;9.986;2023-05-27T15:04:33;25.10;58.90
5588;DHT22;2816;49.778;9.986;2023-05-27T15:07:00;24.80;58.30
5588;DHT22;2816;49.778;9.986;2023-05-27T15:09:27;24.80;59.70
5588;DHT22;2816;49.778;9.986;2023-05-27T15:11:54;24.80;60.00
5588;DHT22;2816;49.778;9.986;2023-05-27T15:14:21;25.00;58.90
5588;DHT22;2816;49.778;9.986;2023-05-27T15:16:49;25.20;59.40
5588;DHT22;2816;49.778;9.986;2023-05-27T15:19:16;25.10;58.10
5588;DHT22;2816;49.778;9.986;2023-05-27T15:21:43;25.00;59.10
5588;DHT22;2816;49.778;9.986;2023-05-27T15:24:10;24.80;58.10
5588;DHT22;2816;49.778;9.986;2023-05-27T15:26:37;24.60;58.70
5588;DHT22;2816;49.778;9.986;2023-05-27T15:29:04;24.70;58.80
5588;DHT22;2816;49.778;9.986;2023-05-27T15:31:31;24.80;59.20
5588;DHT22;2816;49.778;9.986;2023-05-27T15:33:59;24.80;58.70
5588;DHT22;2816;49.778;9.986;2023-05-27T15:36:26;24.70;59.70
5588;DHT22;2816;49.778;9.986;2023-05-27T15:38:53;24.70;59.80
5588;DHT22;2816;49.778;9.986;2023-05-27T15:41:20;24.70;60.00
5588;DHT22;2816;49.778;9.986;2023-05-27T15:43:47;24.80;58.10
5588;DHT22;2816;49.778;9.986;2023-05-27T15:46:14;24.70;59.50
5588;DHT22;2816;49.778;9.986;2023-05-27T15:48:41;24.70;59.10
5588;DHT22;2816;49.778;9.986;2023-05-27T15:51:09;24.60;59.10
5588;DHT22;2816;49.778;9.986;2023-05-27T15:53:37;24.60;59.30
5588;DHT22;2816;49.778;9.986;2023-05-27T15:56:04;24.70;59.00
5588;DHT22;2816;49.778;9.986;2023-05-27T15:58:31;24.80;61.70
5588;DHT22;2816;49.778;9.986;2023-05-27T16:00:58;24.70;59.50
5588;DHT22;2816;49.778;9.986;2023-05-27T16:03:25;24.60;60.20
5588;DHT22;2816;49.778;9.986;2023-05-27T16:05:52;24.60;57.70